Time;durP1;ratioP1;P1;durP2;ratioP2;P2;SDS_P1;SDS_P2;PMS_P1;PMS_P2;Temp;Humidity;BMP_temperature;BMP_pressure;BME280_temperature;BME280_humidity;BME280_pressure;Samples;Min_cycle;Max_cycle;Signal;HPM_P1;HPM_P2
2022/07/19 00:00:08;;;;;;;11.90;4.82;;;;;;;22.54;69.25;101446.16;5008201;28;20128;-73
2022/07/19 00:02:36;;;;;;;16.10;4.63;;;;;;;22.50;68.44;101442.69;5011408;28;20166;-73
2022/07/19 00:05:03;;;;;;;12.85;5.03;;;;;;;22.50;68.40;101441.88;5000565;28;20062;-71
2022/07/19 00:07:30;;;;;;;12.07;4.53;;;;;;;22.48;69.04;101430.28;5002280;28;20052;-75
2022/07/19 00:09:57;;;;;;;10.30;4.38;;;;;;;22.45;69.65;101436.84;5004288;28;20518;-73
2022/07/19 00:12:23;;;;;;;12.13;4.90;;;;;;;22.40;70.04;101428.94;4998844;28;20060;-73
2022/07/19 00:14:50;;;;;;;10.52;5.13;;;;;;;22.40;69.73;101426.94;5005786;28;20050;-75
2022/07/19 00:17:16;;;;;;;15.98;5.28;;;;;;;22.36;69.81;101425.50;5007730;28;20057;-73
2022/07/19 00:19:43;;;;;;;12.55;4.85;;;;;;;22.29;71.33;101422.94;5005765;28;20049;-73
2022/07/19 00:22:13;;;;;;;14.00;5.03;;;;;;;22.27;70.77;101416.97;5004608;28;20053;-71
2022/07/19 00:24:39;;;;;;;13.63;4.90;;;;;;;22.23;71.19;101419.94;5001270;28;20054;-74
2022/07/19 00:27:06;;;;;;;12.95;5.50;;;;;;;22.18;70.36;101428.22;5010321;28;20057;-73
2022/07/19 00:29:32;;;;;;;17.45;4.88;;;;;;;22.08;72.69;101424.56;5002327;28;20068;-74
2022/07/19 00:31:59;;;;;;;14.80;5.20;;;;;;;22.00;72.37;101411.94;5006746;28;20127;-71
2022/07/19 00:34:25;;;;;;;15.75;5.07;;;;;;;22.01;72.51;101421.19;5004334;28;20703;-72
2022/07/19 00:36:52;;;;;;;10.65;4.90;;;;;;;22.00;72.66;101426.03;5002515;28;20057;-74
2022/07/19 00:39:18;;;;;;;21.00;5.13;;;;;;;21.91;74.15;101420.31;5005388;28;20132;-73
2022/07/19 00:41:45;;;;;;;13.68;5.47;;;;;;;21.93;74.99;101422.69;5008764;28;20072;-74
2022/07/19 00:44:12;;;;;;;10.65;4.93;;;;;;;21.91;73.21;101411.88;5001322;28;20053;-71
2022/07/19 00:46:38;;;;;;;12.63;4.72;;;;;;;21.87;74.08;101408.41;5000077;28;20054;-74
2022/07/19 00:49:06;;;;;;;12.68;5.28;;;;;;;21.80;74.52;101419.94;5014414;28;20050;-71
2022/07/19 00:51:39;;;;;;;11.75;4.82;;;;;;;21.73;74.05;101410.97;5009790;28;20058;-71
2022/07/19 00:54:08;;;;;;;10.65;4.70;;;;;;;21.73;75.94;101410.97;5003468;28;20163;-71
2022/07/19 00:56:36;;;;;;;11.18;5.32;;;;;;;21.70;74.93;101403.41;4996725;28;20053;-74
2022/07/19 00:59:04;;;;;;;13.98;5.30;;;;;;;21.70;75.63;101406.22;5003222;28;20041;-75
2022/07/19 01:01:31;;;;;;;11.27;4.85;;;;;;;21.67;75.50;101412.75;5015479;28;20049;-75
2022/07/19 01:03:59;;;;;;;13.18;5.47;;;;;;;21.64;75.06;101408.84;5005787;28;20046;-71
2022/07/19 01:06:26;;;;;;;10.00;4.50;;;;;;;21.61;74.67;101408.94;4999595;28;20775;-74
2022/07/19 01:08:53;;;;;;;13.13;5.53;;;;;;;21.53;77.05;101410.47;5008149;28;20041;-75
2022/07/19 01:11:19;;;;;;;14.30;5.55;;;;;;;21.47;77.15;101403.81;5012447;28;20064;-75
2022/07/19 01:13:46;;;;;;;11.70;5.15;;;;;;;21.48;75.68;101416.66;5001859;28;20051;-74
2022/07/19 01:16:13;;;;;;;12.93;5.70;;;;;;;21.42;77.45;101412.84;5012044;28;20056;-72
2022/07/19 01:18:40;;;;;;;9.15;4.63;;;;;;;21.40;76.98;101406.88;5003388;28;20103;-71
2022/07/19 01:21:07;;;;;;;14.05;5.47;;;;;;;21.40;77.11;101404.06;5004403;28;20160;-72
2022/07/19 01:23:34;;;;;;;13.20;5.53;;;;;;;21.39;76.77;101408.13;5005561;28;20430;-72
2022/07/19 01:26:00;;;;;;;11.02;4.82;;;;;;;21.35;77.08;101408.25;5014334;28;20056;-74
2022/07/19 01:28:27;;;;;;;14.68;6.82;;;;;;;21.33;78.59;101409.94;5007021;28;20156;-73
2022/07/19 01:30:53;;;;;;;10.45;5.28;;;;;;;21.28;79.10;101408.50;5014812;28;20049;-72
2022/07/19 01:33:20;;;;;;;15.00;6.13;;;;;;;21.23;78.88;101405.47;5007646;28;20085;-74
2022/07/19 01:35:46;;;;;;;11.35;5.40;;;;;;;21.17;80.17;101407.28;5009517;28;20137;-71
2022/07/19 01:38:13;;;;;;;12.27;5.57;;;;;;;21.13;80.89;101406.63;5000034;28;20752;-72
2022/07/19 01:40:39;;;;;;;13.18;5.68;;;;;;;21.10;80.32;101410.34;5003125;28;20115;-74
2022/07/19 01:43:07;;;;;;;12.98;5.03;;;;;;;21.10;80.58;101421.59;5005343;28;20859;-71
2022/07/19 01:45:33;;;;;;;12.23;5.15;;;;;;;21.09;79.88;101412.34;5006156;28;20108;-73
2022/07/19 01:48:00;;;;;;;15.40;5.55;;;;;;;21.08;79.44;101413.59;5001021;28;20049;-74
2022/07/19 01:50:27;;;;;;;13.43;5.05;;;;;;;21.06;79.54;101413.25;5007549;28;20049;-72
2022/07/19 01:52:53;;;;;;;15.85;5.70;;;;;;;21.02;79.78;101420.25;5007072;28;20049;-71
2022/07/19 01:55:20;;;;;;;11.90;5.35;;;;;;;20.95;80.24;101420.50;5020225;28;20058;-72
2022/07/19 01:57:48;;;;;;;14.35;5.60;;;;;;;20.87;81.42;101419.91;5019897;28;20132;-72
2022/07/19 02:00:16;;;;;;;14.55;5.07;;;;;;;20.85;82.31;101430.03;5017514;28;20128;-71
2022/07/19 02:02:42;;;;;;;11.23;5.40;;;;;;;20.87;81.76;101421.91;5013207;28;20049;-68
2022/07/19 02:05:09;;;;;;;10.95;5.32;;;;;;;20.84;82.50;101417.97;5018543;28;20506;-70
2022/07/19 02:07:37;;;;;;;15.27;5.43;;;;;;;20.81;82.70;101423.69;5015919;28;20045;-69
2022/07/19 02:10:05;;;;;;;14.98;5.63;;;;;;;20.80;82.46;101419.31;5008196;28;20096;-67
2022/07/19 02:12:32;;;;;;;12.43;5.28;;;;;;;20.80;83.14;101424.94;5022778;28;20057;-70
2022/07/19 02:14:58;;;;;;;13.95;5.50;;;;;;;20.80;81.61;101419.31;5017635;28;20056;-71
2022/07/19 02:17:25;;;;;;;18.10;6.13;;;;;;;20.78;82.08;101419.00;5017379;28;20087;-69
2022/07/19 02:19:51;;;;;;;15.57;6.00;;;;;;;20.73;81.64;101406.28;5016494;28;20515;-73
2022/07/19 02:22:18;;;;;;;11.93;4.97;;;;;;;20.72;84.08;101407.50;5017378;28;20491;-72
2022/07/19 02:24:44;;;;;;;13.35;5.53;;;;;;;20.71;83.22;101410.75;5019639;28;20564;-70
2022/07/19 02:27:11;;;;;;;15.85;5.65;;;;;;;20.68;82.50;101417.31;5019814;28;20054;-73
2022/07/19 02:29:38;;;;;;;13.50;5.82;;;;;;;20.64;84.46;101400.53;5014526;28;20567;-72
2022/07/19 02:32:06;;;;;;;11.50;5.30;;;;;;;20.63;85.08;101401.78;5021826;28;20399;-69
2022/07/19 02:34:33;;;;;;;13.13;5.30;;;;;;;20.67;84.26;101396.03;5009292;28;20065;-71
2022/07/19 02:37:00;;;;;;;18.35;5.78;;;;;;;20.69;83.25;101404.81;5021236;28;20050;-72
2022/07/19 02:39:27;;;;;;;15.13;5.63;;;;;;;20.66;84.64;101409.31;5014068;28;20414;-67
2022/07/19 02:41:53;;;;;;;16.13;6.10;;;;;;;20.67;84.69;101407.28;5016905;28;20077;-70
2022/07/19 02:44:20;;;;;;;16.60;5.82;;;;;;;20.65;85.25;101404.16;5017207;28;20054;-72
2022/07/19 02:46:47;;;;;;;18.58;5.60;;;;;;;20.68;85.13;101400.44;5030702;28;20042;-70
2022/07/19 02:49:13;;;;;;;11.70;5.43;;;;;;;20.63;86.41;101396.16;5010389;28;20072;-71
2022/07/19 02:51:40;;;;;;;16.27;6.10;;;;;;;20.60;84.13;101402.69;5014922;28;20160;-72
2022/07/19 02:54:07;;;;;;;13.38;6.20;;;;;;;20.48;85.64;101397.06;5013527;28;20048;-70
2022/07/19 02:56:35;;;;;;;12.88;5.20;;;;;;;20.45;86.74;101392.34;5016798;28;20141;-70
2022/07/19 02:59:05;;;;;;;16.83;6.20;;;;;;;20.44;86.41;101397.16;5021151;28;20042;-72
2022/07/19 03:01:32;;;;;;;14.07;5.75;;;;;;;20.43;86.55;101390.72;5015742;28;20060;-71
2022/07/19 03:03:59;;;;;;;12.38;5.93;;;;;;;20.39;87.64;101386.47;5016085;28;20053;-70
2022/07/19 03:06:26;;;;;;;11.82;5.40;;;;;;;20.35;87.09;101400.63;5024199;28;20084;-70
2022/07/19 03:08:53;;;;;;;18.13;6.03;;;;;;;20.33;87.55;101394.69;5022530;28;20137;-71
2022/07/19 03:11:20;;;;;;;11.95;5.72;;;;;;;20.30;88.57;101394.78;5012268;28;20060;-71
2022/07/19 03:13:46;;;;;;;11.90;6.00;;;;;;;20.32;86.43;101393.09;5014490;28;20153;-72
2022/07/19 03:16:13;;;;;;;15.05;6.95;;;;;;;20.29;86.69;101393.22;5020810;28;20053;-72
2022/07/19 03:18:39;;;;;;;14.98;7.22;;;;;;;20.28;87.61;101397.25;5021762;28;20209;-72
2022/07/19 03:21:06;;;;;;;15.65;6.40;;;;;;;20.21;87.71;101381.41;5028909;28;20148;-70
2022/07/19 03:23:35;;;;;;;16.63;6.20;;;;;;;20.27;87.18;101395.66;5023872;28;20154;-70
2022/07/19 03:26:02;;;;;;;13.00;5.82;;;;;;;20.26;87.59;101397.69;5015593;28;20077;-70
2022/07/19 03:28:29;;;;;;;29.60;8.70;;;;;;;20.24;87.32;101397.38;5020885;28;20084;-73
2022/07/19 03:30:55;;;;;;;13.60;5.78;;;;;;;20.21;87.22;101392.63;5010983;28;20053;-73
2022/07/19 03:33:22;;;;;;;14.40;5.85;;;;;;;20.21;87.16;101394.66;5024247;28;20585;-70
2022/07/19 03:35:49;;;;;;;15.07;6.15;;;;;;;20.19;88.30;101400.72;5019538;28;20473;-72
2022/07/19 03:38:16;;;;;;;13.52;6.00;;;;;;;20.12;88.48;101386.88;5017046;28;20137;-70
2022/07/19 03:40:45;;;;;;;14.20;6.20;;;;;;;20.13;89.46;101396.09;5024775;28;20065;-71
2022/07/19 03:43:11;;;;;;;13.93;6.07;;;;;;;20.15;89.43;101397.22;5014374;28;20049;-67
2022/07/19 03:45:38;;;;;;;15.77;6.65;;;;;;;20.15;89.70;101394.41;5021729;28;20136;-70
2022/07/19 03:48:04;;;;;;;15.55;6.47;;;;;;;20.17;88.85;101393.97;5021356;28;20594;-72
2022/07/19 03:50:31;;;;;;;23.95;15.35;;;;;;;20.15;88.01;101397.22;5014218;28;20073;-69
2022/07/19 03:52:58;;;;;;;18.45;8.48;;;;;;;20.12;89.32;101400.91;5025908;28;20053;-71
2022/07/19 03:55:24;;;;;;;20.08;8.25;;;;;;;20.13;89.08;101393.28;5012380;28;20060;-70
2022/07/19 03:57:51;;;;;;;16.48;6.65;;;;;;;20.14;88.49;101404.09;5020185;28;20425;-70
2022/07/19 04:00:17;;;;;;;16.83;6.57;;;;;;;20.10;88.75;101394.16;5020693;28;20115;-73
2022/07/19 04:02:44;;;;;;;14.70;5.78;;;;;;;20.08;90.45;101400.22;5009821;28;20169;-70
2022/07/19 04:05:11;;;;;;;15.43;5.90;;;;;;;20.08;89.51;101405.84;5015911;28;20049;-70
2022/07/19 04:07:38;;;;;;;14.18;6.47;;;;;;;20.08;89.03;101394.59;5021740;28;20069;-71
2022/07/19 04:10:05;;;;;;;12.55;5.63;;;;;;;20.06;89.73;101397.09;5017664;28;20080;-69
2022/07/19 04:12:32;;;;;;;16.05;6.40;;;;;;;20.09;89.53;101404.59;5014101;28;20100;-69
2022/07/19 04:14:59;;;;;;;14.05;5.97;;;;;;;20.09;89.30;101407.41;5021973;28;20140;-71
2022/07/19 04:17:25;;;;;;;14.40;6.10;;;;;;;20.09;88.94;101401.00;5015135;28;20571;-71
2022/07/19 04:19:52;;;;;;;15.15;6.15;;;;;;;20.10;88.27;101396.97;5020594;28;20137;-70
2022/07/19 04:22:18;;;;;;;14.85;5.90;;;;;;;20.08;88.56;101410.69;5021977;28;20677;-71
2022/07/19 04:24:45;;;;;;;17.45;6.28;;;;;;;20.08;89.01;101405.06;5017662;28;20057;-72
2022/07/19 04:27:11;;;;;;;16.42;6.00;;;;;;;20.09;88.32;101410.22;5017439;28;20054;-72
2022/07/19 04:29:38;;;;;;;13.85;6.88;;;;;;;20.10;88.47;101408.19;5014685;28;20124;-71
2022/07/19 04:32:05;;;;;;;12.68;5.80;;;;;;;20.11;89.63;101410.59;5024350;28;20077;-70
2022/07/19 04:34:31;;;;;;;16.63;6.75;;;;;;;20.14;89.61;101408.91;5017376;28;20068;-71
2022/07/19 04:36:58;;;;;;;16.38;6.30;;;;;;;20.14;89.06;101398.47;5028133;28;20474;-73
2022/07/19 04:39:24;;;;;;;15.80;5.95;;;;;;;20.21;88.55;101408.69;5025069;28;20077;-74
2022/07/19 04:41:51;;;;;;;16.30;5.85;;;;;;;20.22;88.29;101415.91;5016235;28;20125;-74
2022/07/19 04:44:18;;;;;;;17.95;6.03;;;;;;;20.22;88.77;101422.31;5011894;28;20135;-75
2022/07/19 04:46:45;;;;;;;15.63;6.30;;;;;;;20.25;90.04;101415.03;5038144;28;20148;-75
2022/07/19 04:49:13;;;;;;;14.18;6.10;;;;;;;20.28;88.56;101403.66;5026568;28;20046;-75
2022/07/19 04:51:40;;;;;;;15.85;5.93;;;;;;;20.33;88.41;101408.75;5018938;28;20061;-77
2022/07/19 04:54:06;;;;;;;15.85;6.70;;;;;;;20.41;88.71;101414.16;5016782;28;20048;-77
2022/07/19 04:56:33;;;;;;;18.52;6.38;;;;;;;20.47;87.65;101418.75;5019962;28;20045;-77
2022/07/19 04:58:59;;;;;;;14.20;6.18;;;;;;;20.53;87.90;101418.97;5022623;28;20045;-77
2022/07/19 05:01:26;;;;;;;14.55;6.40;;;;;;;20.57;87.42;101414.81;5021028;28;20135;-77
2022/07/19 05:03:53;;;;;;;16.63;6.13;;;;;;;20.64;87.22;101413.81;5030755;28;20096;-74
2022/07/19 05:06:20;;;;;;;16.25;6.68;;;;;;;20.66;87.61;101405.72;5024783;28;20088;-78
2022/07/19 05:08:46;;;;;;;15.60;6.22;;;;;;;20.78;87.22;101413.38;5011478;28;20060;-76
2022/07/19 05:11:13;;;;;;;20.98;6.65;;;;;;;20.87;86.83;101410.66;5026497;28;20407;-75
2022/07/19 05:13:39;;;;;;;15.55;5.88;;;;;;;20.95;86.89;101401.56;5022619;28;20137;-79
2022/07/19 05:16:06;;;;;;;15.02;6.32;;;;;;;21.05;87.51;101399.63;5028210;28;20574;-77
2022/07/19 05:18:33;;;;;;;12.65;6.05;;;;;;;21.13;86.66;101403.81;5027425;28;20049;-71
2022/07/19 05:21:00;;;;;;;14.30;6.45;;;;;;;21.21;86.19;101393.88;5017049;28;20093;-74
2022/07/19 05:23:26;;;;;;;12.98;6.55;;;;;;;21.31;86.18;101401.97;5022374;28;20217;-75
2022/07/19 05:25:53;;;;;;;16.80;6.25;;;;;;;21.40;84.93;101392.81;5022963;28;20073;-73
2022/07/19 05:28:19;;;;;;;15.38;5.47;;;;;;;21.50;84.77;101392.41;5019022;28;20409;-76
2022/07/19 05:30:46;;;;;;;13.77;6.63;;;;;;;21.61;83.84;101387.22;5017014;28;20049;-70
2022/07/19 05:33:13;;;;;;;18.60;6.65;;;;;;;21.73;83.47;101394.84;5013619;28;20470;-73
2022/07/19 05:35:39;;;;;;;16.65;6.28;;;;;;;21.84;82.93;101394.47;5019439;28;20045;-73
2022/07/19 05:38:06;;;;;;;23.10;6.43;;;;;;;21.95;82.07;101397.66;5011108;28;20057;-73
2022/07/19 05:40:35;;;;;;;20.98;6.32;;;;;;;22.06;81.62;101398.06;5016448;28;20049;-78
2022/07/19 05:43:02;;;;;;;14.68;5.57;;;;;;;22.16;80.75;101399.69;5015841;28;20149;-73
2022/07/19 05:45:28;;;;;;;15.13;6.22;;;;;;;22.28;80.24;101393.19;5017026;28;20096;-74
2022/07/19 05:47:55;;;;;;;15.75;6.28;;;;;;;22.37;79.44;101391.19;5019495;28;20052;-74
2022/07/19 05:50:22;;;;;;;20.83;6.15;;;;;;;22.51;78.71;101392.72;5014668;28;20132;-74
2022/07/19 05:52:49;;;;;;;17.05;5.90;;;;;;;22.62;77.97;101393.06;5022119;28;20079;-71
2022/07/19 05:55:16;;;;;;;16.35;6.20;;;;;;;22.75;77.29;101393.75;5011242;28;20081;-75
2022/07/19 05:57:42;;;;;;;18.25;7.03;;;;;;;22.84;76.97;101388.13;5016891;28;20041;-73
2022/07/19 06:00:09;;;;;;;18.70;6.60;;;;;;;22.89;76.45;101381.09;5009650;28;20121;-72
2022/07/19 06:02:36;;;;;;;18.80;5.97;;;;;;;23.05;76.28;101392.88;5014520;28;20112;-75
2022/07/19 06:05:02;;;;;;;16.27;6.22;;;;;;;23.16;75.65;101390.41;5017100;28;20374;-73
2022/07/19 06:07:29;;;;;;;18.80;6.03;;;;;;;23.25;75.12;101384.81;5026734;28;20088;-72
2022/07/19 06:09:55;;;;;;;16.75;6.10;;;;;;;23.37;74.69;101389.53;5020284;28;20621;-75
2022/07/19 06:12:22;;;;;;;18.98;5.78;;;;;;;23.47;73.46;101385.47;5017250;28;20403;-72
2022/07/19 06:14:49;;;;;;;13.50;5.10;;;;;;;23.56;72.53;101393.16;5021853;28;20111;-75
2022/07/19 06:17:15;;;;;;;19.70;6.05;;;;;;;23.68;71.80;101395.81;5019314;28;20130;-72
2022/07/19 06:19:42;;;;;;;13.85;4.78;;;;;;;23.81;70.84;101392.81;5023790;28;20410;-74
2022/07/19 06:22:08;;;;;;;14.57;5.88;;;;;;;23.92;70.24;101399.56;5024236;28;20068;-73
2022/07/19 06:24:35;;;;;;;16.95;5.97;;;;;;;24.03;69.56;101399.91;5015262;28;20053;-73
2022/07/19 06:27:01;;;;;;;14.80;5.25;;;;;;;24.14;68.79;101411.53;5014630;28;20056;-73
2022/07/19 06:29:28;;;;;;;19.42;4.90;;;;;;;24.25;67.96;101402.53;5015690;28;20077;-76
2022/07/19 06:31:54;;;;;;;15.27;5.07;;;;;;;24.36;67.26;101408.47;5016201;28;20057;-76
2022/07/19 06:34:21;;;;;;;20.08;5.90;;;;;;;24.45;67.10;101414.09;5021168;28;20436;-75
2022/07/19 06:36:47;;;;;;;13.10;5.00;;;;;;;24.54;66.46;101399.94;5017800;28;20140;-75
2022/07/19 06:39:15;;;;;;;18.17;5.45;;;;;;;24.64;65.68;101407.94;5017729;28;20059;-71
2022/07/19 06:41:41;;;;;;;19.33;5.20;;;;;;;24.68;64.72;101390.78;5018211;28;20077;-72
2022/07/19 06:44:08;;;;;;;22.77;5.57;;;;;;;24.84;64.57;101399.66;5018487;28;20068;-72
2022/07/19 06:46:34;;;;;;;19.45;5.80;;;;;;;24.95;64.51;101399.94;5018962;28;20127;-72
2022/07/19 06:49:01;;;;;;;17.15;5.50;;;;;;;25.06;63.94;101400.19;5015613;28;20483;-77
2022/07/19 06:51:27;;;;;;;12.43;4.50;;;;;;;25.18;63.37;101392.72;5012186;28;20064;-72
2022/07/19 06:53:54;;;;;;;15.98;5.10;;;;;;;25.31;63.21;101395.34;5023867;28;20134;-71
2022/07/19 06:56:20;;;;;;;21.23;5.25;;;;;;;25.42;62.96;101392.72;5020535;28;20088;-77
2022/07/19 06:58:47;;;;;;;12.75;4.68;;;;;;;25.55;62.41;101393.28;5021974;28;20060;-74
2022/07/19 07:01:14;;;;;;;16.88;4.80;;;;;;;25.65;61.99;101391.94;5029631;28;20046;-74
2022/07/19 07:03:41;;;;;;;18.20;5.55;;;;;;;25.79;61.58;101400.47;5018995;28;20064;-75
2022/07/19 07:06:07;;;;;;;17.33;5.18;;;;;;;25.92;61.45;101394.53;5022792;28;20054;-76
2022/07/19 07:08:34;;;;;;;14.60;4.90;;;;;;;26.04;60.49;101396.31;5027971;28;20077;-74
2022/07/19 07:11:01;;;;;;;15.52;4.70;;;;;;;26.14;59.61;101398.56;5025807;28;20049;-74
2022/07/19 07:13:28;;;;;;;14.68;4.88;;;;;;;26.25;59.29;101401.59;5014015;28;20422;-75
2022/07/19 07:15:55;;;;;;;13.13;4.57;;;;;;;26.38;58.08;101401.28;5022564;28;20577;-74
2022/07/19 07:18:21;;;;;;;16.10;4.55;;;;;;;26.47;57.31;101399.16;5018020;28;20068;-77
2022/07/19 07:20:48;;;;;;;12.82;4.30;;;;;;;26.57;56.36;101397.00;5020061;28;20124;-74
2022/07/19 07:23:14;;;;;;;10.38;3.90;;;;;;;26.70;55.44;101395.41;5024081;28;20064;-72
2022/07/19 07:25:41;;;;;;;12.20;3.83;;;;;;;26.83;55.14;101395.88;5018334;28;20088;-69
2022/07/19 07:28:08;;;;;;;14.40;4.03;;;;;;;26.94;54.57;101393.22;5018540;28;20096;-73
2022/07/19 07:30:34;;;;;;;11.93;3.55;;;;;;;27.01;53.29;101394.84;5015587;28;20567;-74
2022/07/19 07:33:01;;;;;;;13.52;4.18;;;;;;;27.13;51.90;101405.13;5014317;28;20085;-71
2022/07/19 07:35:28;;;;;;;9.95;3.88;;;;;;;27.25;51.68;101398.31;5018774;28;20084;-73
2022/07/19 07:37:54;;;;;;;12.85;4.22;;;;;;;27.39;51.36;101401.09;5012032;28;20045;-75
2022/07/19 07:40:21;;;;;;;16.30;3.72;;;;;;;27.54;50.95;101389.66;5023072;28;20085;-73
2022/07/19 07:42:47;;;;;;;12.60;3.90;;;;;;;27.70;50.25;101391.13;5012053;28;20485;-75
2022/07/19 07:45:14;;;;;;;15.40;4.07;;;;;;;27.82;49.70;101396.44;5019122;28;20053;-72
2022/07/19 07:47:41;;;;;;;17.27;5.20;;;;;;;27.98;49.28;101392.25;5019030;28;20046;-74
2022/07/19 07:50:08;;;;;;;15.68;4.32;;;;;;;28.10;48.50;101385.38;5019594;28;20077;-73
2022/07/19 07:52:35;;;;;;;16.35;3.90;;;;;;;28.21;47.80;101391.19;5020775;28;20115;-72
2022/07/19 07:55:03;;;;;;;15.93;4.88;;;;;;;28.34;47.29;101380.94;5023491;28;20045;-74
2022/07/19 07:57:50;;;;;;;16.40;3.78;;;;;;;28.49;46.84;101384.47;5027988;28;20045;-71
2022/07/19 08:00:18;;;;;;;16.00;3.97;;;;;;;28.59;46.13;101385.06;5013574;28;20046;-73
2022/07/19 08:02:45;;;;;;;16.13;4.25;;;;;;;28.70;45.85;101385.94;5016053;28;20147;-74
2022/07/19 08:05:12;;;;;;;17.48;4.70;;;;;;;28.82;45.39;101393.25;5014115;28;20057;-72
2022/07/19 08:07:39;;;;;;;10.43;3.70;;;;;;;28.96;45.46;101385.84;5016101;28;20084;-73
2022/07/19 08:10:07;;;;;;;21.65;5.25;;;;;;;29.06;44.99;101378.69;5021130;28;20049;-71
2022/07/19 08:12:34;;;;;;;9.07;4.00;;;;;;;29.18;45.07;101380.28;5016011;28;20062;-74
2022/07/19 08:15:01;;;;;;;14.88;4.00;;;;;;;29.29;44.77;101383.97;5020443;28;20057;-72
2022/07/19 08:17:28;;;;;;;12.73;4.10;;;;;;;29.42;44.54;101381.44;5014983;28;20073;-72
2022/07/19 08:19:55;;;;;;;15.90;4.32;;;;;;;29.53;44.20;101375.78;5020270;28;20160;-73
2022/07/19 08:22:21;;;;;;;17.52;4.47;;;;;;;29.67;44.26;101382.59;5015889;28;20491;-72
2022/07/19 08:24:48;;;;;;;13.52;4.50;;;;;;;29.79;43.91;101381.31;5026154;28;20049;-71
2022/07/19 08:27:15;;;;;;;16.70;5.05;;;;;;;29.93;44.01;101373.84;5024962;28;20057;-72
2022/07/19 08:29:41;;;;;;;15.43;3.80;;;;;;;30.14;43.18;101363.75;5024766;28;20088;-72
2022/07/19 08:32:08;;;;;;;15.35;4.35;;;;;;;30.31;43.00;101364.56;5017805;28;20528;-75
2022/07/19 08:34:34;;;;;;;22.60;4.65;;;;;;;30.45;42.25;101357.81;5020160;28;20172;-73
2022/07/19 08:37:01;;;;;;;16.48;3.90;;;;;;;30.63;42.00;101354.41;5018710;28;20763;-72
2022/07/19 08:39:27;;;;;;;15.98;3.78;;;;;;;30.78;41.56;101360.66;5005339;28;21697;-73
2022/07/19 08:41:54;;;;;;;14.98;4.47;;;;;;;30.93;41.35;101355.44;4998157;28;20049;-75
2022/07/19 08:44:22;;;;;;;15.02;3.70;;;;;;;31.11;40.48;101366.31;5000934;28;20504;-76
2022/07/19 08:46:49;;;;;;;15.48;4.13;;;;;;;31.22;39.88;101354.81;5003099;28;20049;-74
2022/07/19 08:49:16;;;;;;;13.98;3.75;;;;;;;31.37;39.58;101355.31;5004171;28;20060;-75
2022/07/19 08:51:44;;;;;;;14.82;4.22;;;;;;;31.49;39.42;101349.00;5002136;28;20050;-75
2022/07/19 08:54:10;;;;;;;13.82;3.67;;;;;;;31.62;39.16;101342.72;5004350;28;20452;-73
2022/07/19 08:59:23;;;;;;;15.63;4.22;;;;;;;31.86;38.98;101348.56;5002714;28;20049;-76
2022/07/19 09:01:50;;;;;;;13.02;4.07;;;;;;;32.08;38.79;101341.91;5001943;28;20045;-75
2022/07/19 09:04:19;;;;;;;14.63;4.50;;;;;;;32.28;37.18;101342.25;5001073;28;20053;-74
2022/07/19 09:06:47;;;;;;;13.20;3.88;;;;;;;32.46;35.73;101337.97;5003248;28;20045;-74
2022/07/19 09:09:16;;;;;;;10.02;3.55;;;;;;;32.64;34.89;101334.41;5004820;28;20061;-75
2022/07/19 09:11:50;;;;;;;10.90;3.35;;;;;;;32.85;32.52;101336.28;5000388;28;20045;-76
2022/07/19 09:14:30;;;;;;;9.80;2.85;;;;;;;33.13;29.10;101335.97;4987918;28;20077;-75
2022/07/19 09:17:01;;;;;;;10.30;2.78;;;;;;;33.30;30.22;101340.16;5003844;28;20888;-76
2022/07/19 09:19:33;;;;;;;10.93;2.90;;;;;;;33.50;29.03;101338.88;5002629;28;20050;-77
2022/07/19 09:22:13;;;;;;;10.32;3.05;;;;;;;33.62;28.03;101338.22;5000957;28;20055;-75
2022/07/19 09:24:42;;;;;;;8.23;2.83;;;;;;;33.80;28.81;101337.41;5000851;28;20556;-76
2022/07/19 09:27:12;;;;;;;9.52;2.90;;;;;;;34.00;27.96;101331.13;5002366;28;20446;-76
2022/07/19 09:29:44;;;;;;;7.45;3.53;;;;;;;34.16;25.78;101335.84;5009257;28;20839;-74
2022/07/19 09:32:12;;;;;;;7.60;2.75;;;;;;;34.35;26.71;101329.28;5012337;28;20056;-75
2022/07/19 09:34:53;;;;;;;5.22;2.40;;;;;;;34.44;23.94;101328.84;5002546;28;20060;-74
2022/07/19 09:37:27;;;;;;;7.43;2.70;;;;;;;34.55;25.00;101322.91;5003863;28;20045;-76
2022/07/19 09:39:59;;;;;;;7.55;2.58;;;;;;;34.59;24.02;101324.16;5005886;28;20161;-76
2022/07/19 09:42:39;;;;;;;7.63;2.85;;;;;;;34.77;24.75;101320.41;5002557;28;20049;-76
2022/07/19 09:45:11;;;;;;;16.05;3.83;;;;;;;34.94;25.17;101322.97;4998040;28;20154;-75
2022/07/19 09:47:40;;;;;;;6.82;3.08;;;;;;;35.06;24.90;101318.53;5001309;28;20060;-75
2022/07/19 09:50:14;;;;;;;8.35;2.90;;;;;;;35.14;24.60;101317.31;5002154;28;20057;-75
2022/07/19 09:52:43;;;;;;;11.20;3.55;;;;;;;35.25;24.62;101313.41;5004129;28;20056;-74
2022/07/19 09:55:14;;;;;;;7.38;2.90;;;;;;;35.37;24.43;101311.88;5004422;28;20053;-75
2022/07/19 09:57:46;;;;;;;9.00;2.78;;;;;;;35.45;23.80;101309.88;5001384;28;20056;-75
2022/07/19 10:00:15;;;;;;;7.78;2.97;;;;;;;35.51;23.97;101311.31;5000027;28;20160;-75
2022/07/19 10:02:49;;;;;;;7.03;2.90;;;;;;;35.56;22.92;101309.63;5012503;28;20873;-74
2022/07/19 10:05:16;;;;;;;6.72;2.42;;;;;;;35.60;23.81;101298.56;5012455;28;20053;-75
2022/07/19 10:07:43;;;;;;;5.55;2.90;;;;;;;35.70;23.09;101306.13;5008711;28;20136;-76
2022/07/19 10:10:12;;;;;;;9.02;2.90;;;;;;;35.90;23.47;101307.53;5010596;28;20164;-74
2022/07/19 10:12:41;;;;;;;5.35;2.90;;;;;;;35.89;22.37;101300.22;4999989;28;20080;-74
2022/07/19 10:15:10;;;;;;;12.18;3.20;;;;;;;35.91;22.39;101295.47;5006027;28;20140;-75
2022/07/19 10:17:51;;;;;;;11.68;3.20;;;;;;;35.87;22.52;101292.13;5000347;28;20049;-77
2022/07/19 10:20:22;;;;;;;8.57;2.58;;;;;;;36.09;22.56;101285.84;5008901;28;20472;-75
2022/07/19 10:22:53;;;;;;;5.25;3.00;;;;;;;36.35;23.20;101282.03;5004053;28;20054;-75
2022/07/19 10:25:20;;;;;;;8.85;3.22;;;;;;;36.44;22.43;101275.75;5001432;28;20730;-76
2022/07/19 10:27:50;;;;;;;8.65;2.70;;;;;;;36.59;22.65;101275.88;5011248;28;20052;-75
2022/07/19 10:30:22;;;;;;;6.28;2.80;;;;;;;36.69;21.76;101282.69;5009693;28;20136;-76
2022/07/19 10:32:51;;;;;;;6.00;2.65;;;;;;;36.59;20.80;101284.53;5007589;28;20053;-75
2022/07/19 10:35:21;;;;;;;7.82;2.85;;;;;;;36.74;20.92;101272.38;5011115;28;20060;-74
2022/07/19 10:37:50;;;;;;;6.47;2.40;;;;;;;36.72;20.25;101275.03;5010068;28;20136;-73
2022/07/19 10:40:47;;;;;;;7.22;2.72;;;;;;;36.73;20.15;101265.81;5010213;28;20552;-74
2022/07/19 10:43:19;;;;;;;9.20;2.88;;;;;;;36.86;20.01;101259.94;4995891;28;20924;-72
2022/07/19 10:45:58;;;;;;;9.48;2.70;;;;;;;37.14;20.83;101259.09;5007476;28;20166;-73
2022/07/19 10:48:42;;;;;;;6.80;2.30;;;;;;;37.34;20.62;101261.91;5009866;28;20064;-71
2022/07/19 10:51:27;;;;;;;11.60;2.87;;;;;;;37.23;20.29;101253.59;5002045;28;20054;-70
2022/07/19 10:54:03;;;;;;;4.50;2.40;;;;;;;37.44;20.79;101248.47;5004953;28;20065;-71
2022/07/19 10:56:34;;;;;;;9.30;2.70;;;;;;;37.56;20.61;101257.53;5011088;28;20065;-71
2022/07/19 10:59:12;;;;;;;4.47;2.30;;;;;;;37.51;19.89;101265.03;5008267;28;20166;-72
2022/07/19 11:02:00;;;;;;;4.97;2.28;;;;;;;37.68;19.18;101256.63;5010195;28;20129;-74
2022/07/19 11:04:47;;;;;;;5.43;2.10;;;;;;;37.89;19.35;101260.13;5008238;28;20049;-71
2022/07/19 11:07:16;;;;;;;5.18;2.13;;;;;;;38.09;19.68;101249.75;5003053;28;20050;-72
2022/07/19 11:09:48;;;;;;;4.38;2.30;;;;;;;38.28;18.46;101253.03;5022141;28;20979;-75
2022/07/19 11:12:44;;;;;;;5.53;2.25;;;;;;;38.14;17.94;101249.59;5008316;28;20049;-72
2022/07/19 11:15:11;;;;;;;;;;;;;;;38.02;17.89;101239.72;5020991;28;20543;-73
2022/07/19 11:18:10;;;;;;;6.20;2.53;;;;;;;38.12;18.92;101234.16;5016031;28;19957;-75
2022/07/19 11:20:37;;;;;;;6.38;2.70;;;;;;;38.22;18.90;101238.00;4981080;28;20111;-71
2022/07/19 11:23:04;;;;;;;7.38;2.40;;;;;;;38.24;18.91;101238.22;5001012;28;20140;-71
2022/07/19 11:25:34;;;;;;;3.15;1.80;;;;;;;38.28;17.51;101235.69;5002582;28;20065;-73